Time;durP1;ratioP1;P1;durP2;ratioP2;P2;SDS_P1;SDS_P2;PMS_P1;PMS_P2;Temp;Humidity;BMP_temperature;BMP_pressure;BME280_temperature;BME280_humidity;BME280_pressure;Samples;Min_cycle;Max_cycle;Signal;HPM_P1;HPM_P2
2022/02/14 00:02:48;;;;;;;7.72;4.40;;;;;;;;;;19813501;30;20614;-56
2022/02/14 00:12:51;;;;;;;9.23;3.67;;;;;;;;;;19824915;29;20055;-56
2022/02/14 00:22:54;;;;;;;7.80;3.37;;;;;;;;;;19826402;29;20463;-56
2022/02/14 00:32:56;;;;;;;8.20;2.17;;;;;;;;;;19824978;30;20059;-56
2022/02/14 00:42:58;;;;;;;7.78;1.95;;;;;;;;;;19823938;30;20070;-56
2022/02/14 00:53:00;;;;;;;6.13;2.08;;;;;;;;;;19823970;30;20055;-55
2022/02/14 01:03:03;;;;;;;5.43;1.83;;;;;;;;;;19822391;30;20055;-61
2022/02/14 01:13:05;;;;;;;3.95;1.73;;;;;;;;;;19822329;30;20059;-55
2022/02/14 01:23:07;;;;;;;3.80;1.48;;;;;;;;;;19820141;29;20073;-57
2022/02/14 01:33:10;;;;;;;4.60;1.60;;;;;;;;;;19820602;30;20051;-55
2022/02/14 01:43:15;;;;;;;2.38;1.65;;;;;;;;;;19819798;30;20055;-57
2022/02/14 01:53:17;;;;;;;2.33;1.20;;;;;;;;;;19819938;30;20394;-64
2022/02/14 02:03:20;;;;;;;1.48;1.10;;;;;;;;;;19818774;30;20320;-56
2022/02/14 02:13:22;;;;;;;2.15;1.17;;;;;;;;;;19817847;30;20059;-55
2022/02/14 02:23:24;;;;;;;2.70;1.38;;;;;;;;;;19816363;29;20125;-55
2022/02/14 02:33:29;;;;;;;1.40;1.10;;;;;;;;;;19816246;29;20047;-56
2022/02/14 02:43:35;;;;;;;5.05;1.38;;;;;;;;;;19816495;30;20493;-62
2022/02/14 02:53:42;;;;;;;2.35;1.27;;;;;;;;;;19815659;30;20055;-57
2022/02/14 03:03:47;;;;;;;4.50;1.48;;;;;;;;;;19815022;30;20055;-57
2022/02/14 03:13:51;;;;;;;2.25;0.80;;;;;;;;;;19815227;30;20504;-57
2022/02/14 03:23:54;;;;;;;2.83;0.68;;;;;;;;;;19813948;30;20127;-61
2022/02/14 03:33:57;;;;;;;2.40;0.60;;;;;;;;;;19815005;30;20058;-56
2022/02/14 03:43:59;;;;;;;1.95;0.88;;;;;;;;;;19820406;29;20091;-59
2022/02/14 03:54:01;;;;;;;4.15;0.90;;;;;;;;;;19827660;30;20059;-61
2022/02/14 04:04:04;;;;;;;2.35;0.80;;;;;;;;;;19826788;30;20090;-56
2022/02/14 04:14:07;;;;;;;3.63;0.80;;;;;;;;;;19826519;30;20094;-55
2022/02/14 04:24:09;;;;;;;3.28;0.82;;;;;;;;;;19825422;30;20406;-57
2022/02/14 04:34:14;;;;;;;2.15;1.00;;;;;;;;;;19824592;30;20062;-56
2022/02/14 04:44:16;;;;;;;3.10;0.93;;;;;;;;;;19824154;30;20099;-56
2022/02/14 04:54:19;;;;;;;3.47;0.95;;;;;;;;;;19823338;29;20058;-57
2022/02/14 05:04:22;;;;;;;3.78;1.00;;;;;;;;;;19822451;30;20155;-56
2022/02/14 05:14:24;;;;;;;3.65;1.10;;;;;;;;;;19822022;30;20508;-57
2022/02/14 05:24:26;;;;;;;5.47;1.50;;;;;;;;;;19820838;30;20578;-56
2022/02/14 05:34:29;;;;;;;6.82;1.60;;;;;;;;;;19821253;30;20051;-55
2022/02/14 05:44:32;;;;;;;11.00;2.00;;;;;;;;;;19819541;30;20080;-56
2022/02/14 05:54:34;;;;;;;6.60;1.75;;;;;;;;;;19819056;30;20490;-56
2022/02/14 06:04:36;;;;;;;8.02;2.25;;;;;;;;;;19817779;29;20060;-56
2022/02/14 06:14:39;;;;;;;4.72;1.52;;;;;;;;;;19817494;30;20087;-58
2022/02/14 06:24:41;;;;;;;3.92;1.42;;;;;;;;;;19816780;29;20063;-56
2022/02/14 06:34:44;;;;;;;6.50;1.67;;;;;;;;;;19817847;30;20059;-61
2022/02/14 06:44:47;;;;;;;7.80;1.98;;;;;;;;;;19815595;30;20059;-55
2022/02/14 06:54:49;;;;;;;8.60;1.85;;;;;;;;;;19815478;30;20091;-62
2022/02/14 07:04:51;;;;;;;8.82;2.10;;;;;;;;;;19815152;30;20433;-56
2022/02/14 07:14:53;;;;;;;8.27;2.13;;;;;;;;;;19817546;29;20056;-57
2022/02/14 07:24:55;;;;;;;6.30;2.30;;;;;;;;;;19829212;29;20121;-58
2022/02/14 07:34:58;;;;;;;8.15;1.48;;;;;;;;;;19827603;30;20062;-55
2022/02/14 07:45:00;;;;;;;5.85;2.13;;;;;;;;;;19827244;30;20055;-57
2022/02/14 07:55:03;;;;;;;6.97;1.92;;;;;;;;;;19826087;30;20409;-57
2022/02/14 08:05:07;;;;;;;11.88;2.97;;;;;;;;;;19825009;30;20059;-55
2022/02/14 08:15:09;;;;;;;5.32;1.70;;;;;;;;;;19825268;30;20196;-62
2022/02/14 08:25:13;;;;;;;7.13;2.15;;;;;;;;;;19823428;29;20070;-57
2022/02/14 08:35:17;;;;;;;9.27;2.17;;;;;;;;;;19825012;30;20058;-56
2022/02/14 08:45:19;;;;;;;5.68;1.98;;;;;;;;;;19823612;30;20059;-55
2022/02/14 08:55:22;;;;;;;9.15;2.00;;;;;;;;;;19823301;30;20051;-56
2022/02/14 09:05:26;;;;;;;5.75;2.45;;;;;;;;;;19822502;30;20065;-57
2022/02/14 09:15:28;;;;;;;7.13;1.17;;;;;;;;;;19821762;30;20196;-62
2022/02/14 09:25:30;;;;;;;6.28;2.17;;;;;;;;;;19820043;30;20154;-55
2022/02/14 09:35:32;;;;;;;3.35;1.35;;;;;;;;;;19819316;30;20051;-63
2022/02/14 09:45:36;;;;;;;3.90;1.27;;;;;;;;;;19818176;29;20121;-62
2022/02/14 09:55:38;;;;;;;7.45;1.65;;;;;;;;;;19818295;30;20085;-64
2022/02/14 10:06:01;;;;;;;3.67;1.30;;;;;;;;;;19818340;30;20413;-64
2022/02/14 10:16:08;;;;;;;4.40;1.20;;;;;;;;;;19817137;30;20560;-54
2022/02/14 10:26:18;;;;;;;3.30;1.00;;;;;;;;;;19815680;30;20062;-55
2022/02/14 10:36:24;;;;;;;5.78;1.10;;;;;;;;;;19815463;30;20066;-56
2022/02/14 10:46:25;;;;;;;3.33;1.00;;;;;;;;;;19814782;30;20062;-60
2022/02/14 10:56:27;;;;;;;5.05;1.98;;;;;;;;;;19814367;29;20066;-61
2022/02/14 11:06:30;;;;;;;8.30;1.83;;;;;;;;;;19781313;29;20058;-71
2022/02/14 11:16:33;;;;;;;4.05;1.27;;;;;;;;;;19804594;29;20461;-53
2022/02/14 11:26:44;;;;;;;4.80;1.30;;;;;;;;;;19776571;29;20389;-64
2022/02/14 11:36:58;;;;;;;3.80;1.00;;;;;;;;;;19835770;29;20097;-59
2022/02/14 11:47:00;;;;;;;3.60;0.98;;;;;;;;;;19756342;29;20144;-58
2022/02/14 11:57:11;;;;;;;4.47;1.05;;;;;;;;;;19805637;29;20063;-60
2022/02/14 12:07:15;;;;;;;3.53;0.90;;;;;;;;;;19846010;29;20095;-59
2022/02/14 12:28:01;;;;;;;1.70;0.88;;;;;;;;;;19822982;30;20143;-62
2022/02/14 12:38:03;;;;;;;3.80;1.08;;;;;;;;;;19822993;30;20051;-65
2022/02/14 12:48:05;;;;;;;2.83;0.90;;;;;;;;;;19823189;30;20456;-62
2022/02/14 12:58:07;;;;;;;2.45;1.00;;;;;;;;;;19821494;30;20520;-64
2022/02/14 13:08:17;;;;;;;10.32;1.88;;;;;;;;;;19821750;30;20059;-61
2022/02/14 13:18:19;;;;;;;5.30;1.30;;;;;;;;;;19820537;29;20573;-58
2022/02/14 13:28:22;;;;;;;5.95;1.27;;;;;;;;;;19820079;30;20059;-58
2022/02/14 13:38:35;;;;;;;3.25;0.80;;;;;;;;;;19821032;30;20056;-68
2022/02/14 13:48:45;;;;;;;3.08;1.00;;;;;;;;;;19821427;30;20398;-71
2022/02/14 13:58:49;;;;;;;3.35;0.75;;;;;;;;;;19828580;30;20461;-68
2022/02/14 14:08:52;;;;;;;3.42;0.85;;;;;;;;;;19824511;30;20052;-60
2022/02/14 14:18:55;;;;;;;4.10;1.17;;;;;;;;;;19819866;29;20091;-60
2022/02/14 14:28:57;;;;;;;5.85;1.20;;;;;;;;;;19801500;29;20414;-59
2022/02/14 14:38:59;;;;;;;6.68;1.35;;;;;;;;;;19817912;30;20463;-59
2022/02/14 14:49:01;;;;;;;4.50;1.10;;;;;;;;;;19817725;30;20058;-71
2022/02/14 14:59:07;;;;;;;6.40;1.35;;;;;;;;;;19815756;30;20451;-58
2022/02/14 15:09:09;;;;;;;2.10;1.13;;;;;;;;;;19815491;30;20062;-58
2022/02/14 15:19:12;;;;;;;3.35;0.98;;;;;;;;;;19813942;29;20070;-62
2022/02/14 15:29:15;;;;;;;1.67;0.88;;;;;;;;;;19813442;30;20067;-61
2022/02/14 15:39:17;;;;;;;3.83;1.02;;;;;;;;;;19819657;29;20059;-59
2022/02/14 15:49:20;;;;;;;2.40;0.75;;;;;;;;;;19828220;30;20062;-61
2022/02/14 15:59:22;;;;;;;4.32;0.90;;;;;;;;;;19829729;30;20066;-73
2022/02/14 16:09:24;;;;;;;3.47;1.40;;;;;;;;;;19828146;30;20062;-72
2022/02/14 16:19:26;;;;;;;4.03;0.85;;;;;;;;;;19825581;29;20067;-58
2022/02/14 16:29:29;;;;;;;2.10;0.80;;;;;;;;;;19824905;30;20063;-57
2022/02/14 16:39:31;;;;;;;1.20;0.75;;;;;;;;;;19826255;30;20413;-72
2022/02/14 16:49:53;;;;;;;3.10;1.33;;;;;;;;;;19799255;29;20090;-54
2022/02/14 16:59:55;;;;;;;3.47;0.98;;;;;;;;;;19800256;30;20087;-59
2022/02/14 17:09:57;;;;;;;4.30;1.30;;;;;;;;;;19783131;29;20124;-59
2022/02/14 17:19:59;;;;;;;2.70;1.05;;;;;;;;;;19785020;29;20066;-57
2022/02/14 17:30:02;;;;;;;2.13;0.68;;;;;;;;;;19796100;30;20055;-56
2022/02/14 17:40:05;;;;;;;4.30;1.20;;;;;;;;;;19788694;29;20463;-68
2022/02/14 17:50:07;;;;;;;1.88;0.90;;;;;;;;;;19744461;30;20100;-69
2022/02/14 18:00:09;;;;;;;1.38;0.50;;;;;;;;;;19744465;30;20111;-56
2022/02/14 18:10:12;;;;;;;1.70;0.70;;;;;;;;;;19743852;30;20051;-68
2022/02/14 18:20:14;;;;;;;1.40;0.68;;;;;;;;;;19743168;29;20066;-68
2022/02/14 18:30:16;;;;;;;1.25;0.60;;;;;;;;;;19742269;30;20113;-70
2022/02/14 18:40:18;;;;;;;3.90;1.20;;;;;;;;;;19741945;30;20134;-67
2022/02/14 18:50:20;;;;;;;1.13;0.60;;;;;;;;;;19741674;30;20047;-69
2022/02/14 19:00:22;;;;;;;1.73;1.00;;;;;;;;;;19739272;30;20116;-68
2022/02/14 19:10:24;;;;;;;1.02;0.60;;;;;;;;;;19742497;30;20105;-63
2022/02/14 19:20:30;;;;;;;2.78;1.15;;;;;;;;;;19753396;30;20117;-57
2022/02/14 19:30:32;;;;;;;2.42;1.00;;;;;;;;;;19753053;30;20064;-71
2022/02/14 19:40:35;;;;;;;1.85;0.95;;;;;;;;;;19752603;30;20063;-67
2022/02/14 19:50:37;;;;;;;1.90;0.85;;;;;;;;;;19752407;30;20063;-69
2022/02/14 20:00:39;;;;;;;2.75;1.27;;;;;;;;;;19751093;30;20060;-56
2022/02/14 20:10:40;;;;;;;2.67;1.30;;;;;;;;;;19750946;30;20386;-65
2022/02/14 20:20:42;;;;;;;2.53;1.17;;;;;;;;;;19748660;29;20153;-64
2022/02/14 20:30:44;;;;;;;5.90;1.48;;;;;;;;;;19747728;30;20052;-63
2022/02/14 20:40:47;;;;;;;2.53;1.00;;;;;;;;;;19748262;30;20055;-65
2022/02/14 20:50:50;;;;;;;5.85;1.90;;;;;;;;;;19748111;30;20059;-66
2022/02/14 21:00:53;;;;;;;5.20;1.90;;;;;;;;;;19748188;30;20414;-63
2022/02/14 21:10:55;;;;;;;3.97;2.30;;;;;;;;;;19748525;30;20090;-69
2022/02/14 21:20:56;;;;;;;5.13;2.03;;;;;;;;;;19749410;29;20517;-68
2022/02/14 21:30:58;;;;;;;4.43;1.88;;;;;;;;;;19749444;30;20558;-69
2022/02/14 21:41:00;;;;;;;5.75;2.83;;;;;;;;;;19746714;30;20066;-68
2022/02/14 21:51:02;;;;;;;5.65;1.90;;;;;;;;;;19745768;30;20063;-63
2022/02/14 22:01:03;;;;;;;4.15;1.60;;;;;;;;;;19745869;30;20060;-70
2022/02/14 22:11:05;;;;;;;3.30;1.35;;;;;;;;;;19746266;30;20062;-63
2022/02/14 22:21:07;;;;;;;2.47;0.88;;;;;;;;;;19745449;30;20060;-65
2022/02/14 22:31:09;;;;;;;2.90;1.13;;;;;;;;;;19749382;30;20086;-62
2022/02/14 22:41:11;;;;;;;3.40;1.33;;;;;;;;;;19744011;30;20083;-59
2022/02/14 22:51:13;;;;;;;3.58;1.10;;;;;;;;;;19742369;30;20056;-58
2022/02/14 23:01:15;;;;;;;1.85;0.90;;;;;;;;;;19742370;30;20059;-60
2022/02/14 23:21:37;;;;;;;4.65;1.70;;;;;;;;;;19743025;29;20099;-70
2022/02/14 23:31:38;;;;;;;2.95;1.00;;;;;;;;;;19740723;30;20056;-56
2022/02/14 23:41:40;;;;;;;2.80;1.05;;;;;;;;;;19740007;30;20139;-56
2022/02/14 23:51:42;;;;;;;2.38;1.33;;;;;;;;;;19739404;30;20508;-67
